PUA272 NZWN-NZQN
Flight info
| Callsign | PUA272 |
|---|---|
| Flight time | 1h 40m |
| Altitude | 36000 |
| Route | SABDA Y622 MESIX H159 CH Y266 ELRUV |
| Aircraft | B738/M-SDE2E3FGHIRWXY/LB1 |
Departure
| Time | 2026-05-06 23:36 |
|---|---|
| Airport | Wellington International Airport (NZWN) |
Arrival
| Time | 2026-05-07 01:16 |
|---|---|
| Airport | Queenstown Airport (NZQN) |
| Time | Latitude | Longitude | Altitude | Speed | Heading |
|---|---|---|---|---|---|
| 2026-05-06 23:13 | -41.32957 | 174.81019 | 16 ft | 0 kts | 152° |
| 2026-05-06 23:18 | -41.32952 | 174.81014 | 16 ft | 4 kts | 172° |
| 2026-05-06 23:19 | -41.32934 | 174.81004 | 16 ft | 4 kts | 142° |
| 2026-05-06 23:19 | -41.32917 | 174.80978 | 15 ft | 4 kts | 110° |
| 2026-05-06 23:19 | -41.32912 | 174.80944 | 15 ft | 4 kts | 90° |
| 2026-05-06 23:19 | -41.32913 | 174.80908 | 15 ft | 4 kts | 92° |
| 2026-05-06 23:20 | -41.32909 | 174.80881 | 16 ft | 4 kts | 157° |
| 2026-05-06 23:20 | -41.32892 | 174.80880 | 15 ft | 4 kts | 183° |
| 2026-05-06 23:20 | -41.32865 | 174.80882 | 15 ft | 3 kts | 183° |
| 2026-05-06 23:20 | -41.32862 | 174.80882 | 15 ft | 1 kts | 183° |
| 2026-05-06 23:23 | -41.32867 | 174.80882 | 17 ft | 4 kts | 183° |
| 2026-05-06 23:23 | -41.32939 | 174.80877 | 16 ft | 11 kts | 183° |
| 2026-05-06 23:24 | -41.32969 | 174.80816 | 16 ft | 6 kts | 255° |
| 2026-05-06 23:24 | -41.32983 | 174.80801 | 18 ft | 3 kts | 195° |
| 2026-05-06 23:24 | -41.33025 | 174.80795 | 18 ft | 11 kts | 182° |
| 2026-05-06 23:24 | -41.33115 | 174.80789 | 18 ft | 14 kts | 182° |
| 2026-05-06 23:25 | -41.33209 | 174.80783 | 17 ft | 13 kts | 182° |
| 2026-05-06 23:25 | -41.33299 | 174.80778 | 20 ft | 13 kts | 182° |
| 2026-05-06 23:25 | -41.33385 | 174.80773 | 17 ft | 10 kts | 182° |
| 2026-05-06 23:25 | -41.33392 | 174.80772 | 17 ft | 0 kts | 182° |
| 2026-05-06 23:27 | -41.33394 | 174.80772 | 17 ft | 2 kts | 182° |
| 2026-05-06 23:27 | -41.33435 | 174.80769 | 16 ft | 8 kts | 183° |
| 2026-05-06 23:27 | -41.33440 | 174.80769 | 15 ft | 0 kts | 183° |
| 2026-05-06 23:28 | -41.33468 | 174.80767 | 15 ft | 7 kts | 183° |
| 2026-05-06 23:29 | -41.33491 | 174.80756 | 14 ft | 0 kts | 212° |
| 2026-05-06 23:31 | -41.33492 | 174.80756 | 14 ft | 1 kts | 212° |
| 2026-05-06 23:31 | -41.33522 | 174.80695 | 12 ft | 15 kts | 247° |
| 2026-05-06 23:32 | -41.33497 | 174.80636 | 13 ft | 6 kts | 360° |
| 2026-05-06 23:32 | -41.33494 | 174.80636 | 11 ft | 0 kts | 2° |
| 2026-05-06 23:35 | -41.33488 | 174.80636 | 11 ft | 8 kts | 2° |
| 2026-05-06 23:35 | -41.33183 | 174.80655 | 16 ft | 80 kts | 2° |
| 2026-05-06 23:36 | -41.32416 | 174.80706 | 92 ft | 133 kts | 2° |
| 2026-05-06 23:36 | -41.31469 | 174.80760 | 820 ft | 137 kts | 3° |
| 2026-05-06 23:36 | -41.30495 | 174.80837 | 1648 ft | 143 kts | 358° |
| 2026-05-06 23:36 | -41.29441 | 174.80916 | 2314 ft | 163 kts | 357° |
| 2026-05-06 23:37 | -41.28245 | 174.80983 | 2783 ft | 178 kts | 356° |
| 2026-05-06 23:37 | -41.27003 | 174.81059 | 3461 ft | 179 kts | 355° |
| 2026-05-06 23:37 | -41.25764 | 174.80917 | 4060 ft | 182 kts | 343° |
| 2026-05-06 23:37 | -41.24565 | 174.80347 | 4764 ft | 183 kts | 334° |
| 2026-05-06 23:38 | -41.23353 | 174.79705 | 5457 ft | 193 kts | 335° |
| 2026-05-06 23:38 | -41.22041 | 174.79086 | 6095 ft | 205 kts | 341° |
| 2026-05-06 23:38 | -41.20679 | 174.78624 | 7023 ft | 203 kts | 342° |
| 2026-05-06 23:38 | -41.19317 | 174.78157 | 7934 ft | 202 kts | 342° |
| 2026-05-06 23:39 | -41.17973 | 174.77695 | 8833 ft | 199 kts | 343° |
| 2026-05-06 23:39 | -41.16607 | 174.77226 | 9693 ft | 201 kts | 341° |
| 2026-05-06 23:39 | -41.15407 | 174.76383 | 10478 ft | 202 kts | 319° |
| 2026-05-06 23:39 | -41.14544 | 174.74873 | 11161 ft | 211 kts | 298° |
| 2026-05-06 23:40 | -41.14254 | 174.72915 | 11856 ft | 227 kts | 273° |
| 2026-05-06 23:40 | -41.14741 | 174.70851 | 12557 ft | 248 kts | 245° |
| 2026-05-06 23:40 | -41.16061 | 174.69219 | 13284 ft | 268 kts | 216° |
| 2026-05-06 23:40 | -41.17861 | 174.68384 | 14025 ft | 283 kts | 192° |
| 2026-05-06 23:41 | -41.19878 | 174.68524 | 14505 ft | 301 kts | 176° |
| 2026-05-06 23:41 | -41.22042 | 174.68966 | 14674 ft | 327 kts | 174° |
| 2026-05-06 23:41 | -41.24371 | 174.69448 | 14853 ft | 351 kts | 174° |
| 2026-05-06 23:41 | -41.26864 | 174.69932 | 15039 ft | 373 kts | 175° |
| 2026-05-06 23:42 | -41.29476 | 174.70400 | 15297 ft | 391 kts | 175° |
| 2026-05-06 23:42 | -41.32233 | 174.70869 | 15917 ft | 397 kts | 176° |
| 2026-05-06 23:42 | -41.34935 | 174.71326 | 16749 ft | 396 kts | 176° |
| 2026-05-06 23:42 | -41.37670 | 174.71352 | 17418 ft | 393 kts | 194° |
| 2026-05-06 23:43 | -41.40352 | 174.70658 | 18101 ft | 395 kts | 195° |
| 2026-05-06 23:43 | -41.43065 | 174.69955 | 18692 ft | 400 kts | 195° |
| 2026-05-06 23:43 | -41.45817 | 174.69287 | 19306 ft | 403 kts | 193° |
| 2026-05-06 23:43 | -41.48593 | 174.68629 | 19899 ft | 406 kts | 195° |
| 2026-05-06 23:44 | -41.51241 | 174.67410 | 20431 ft | 402 kts | 211° |
| 2026-05-06 23:44 | -41.53717 | 174.65662 | 21018 ft | 405 kts | 212° |
| 2026-05-06 23:44 | -41.56198 | 174.63872 | 21634 ft | 406 kts | 212° |
| 2026-05-06 23:44 | -41.58701 | 174.62077 | 22192 ft | 410 kts | 212° |
| 2026-05-06 23:45 | -41.61227 | 174.60286 | 22714 ft | 414 kts | 212° |
| 2026-05-06 23:45 | -41.63789 | 174.58487 | 23233 ft | 418 kts | 212° |
| 2026-05-06 23:45 | -41.66374 | 174.56685 | 23758 ft | 421 kts | 212° |
| 2026-05-06 23:45 | -41.68986 | 174.54867 | 24205 ft | 424 kts | 212° |
| 2026-05-06 23:46 | -41.71607 | 174.53041 | 24662 ft | 426 kts | 212° |
| 2026-05-06 23:46 | -41.74249 | 174.51199 | 25092 ft | 429 kts | 212° |
| 2026-05-06 23:46 | -41.76904 | 174.49346 | 25527 ft | 432 kts | 212° |
| 2026-05-06 23:46 | -41.79571 | 174.47474 | 25948 ft | 434 kts | 213° |
| 2026-05-06 23:47 | -41.82160 | 174.45401 | 26355 ft | 434 kts | 218° |
| 2026-05-06 23:47 | -41.84670 | 174.43140 | 26771 ft | 435 kts | 220° |
| 2026-05-06 23:47 | -41.87150 | 174.40807 | 27192 ft | 437 kts | 221° |
| 2026-05-06 23:47 | -41.89639 | 174.38447 | 27588 ft | 439 kts | 221° |
| 2026-05-06 23:48 | -41.92147 | 174.36085 | 27964 ft | 442 kts | 220° |
| 2026-05-06 23:48 | -41.94683 | 174.33720 | 28344 ft | 445 kts | 220° |
| 2026-05-06 23:48 | -41.97240 | 174.31356 | 28715 ft | 448 kts | 220° |
| 2026-05-06 23:48 | -41.99818 | 174.28986 | 29073 ft | 450 kts | 220° |
| 2026-05-06 23:49 | -42.02412 | 174.26608 | 29425 ft | 453 kts | 220° |
| 2026-05-06 23:49 | -42.05027 | 174.24212 | 29760 ft | 456 kts | 220° |
| 2026-05-06 23:49 | -42.07657 | 174.21803 | 30124 ft | 458 kts | 220° |
| 2026-05-06 23:49 | -42.10284 | 174.19395 | 30515 ft | 457 kts | 220° |
| 2026-05-06 23:50 | -42.12902 | 174.16995 | 31056 ft | 452 kts | 221° |
| 2026-05-06 23:50 | -42.18046 | 174.12271 | 32098 ft | 444 kts | 221° |
| 2026-05-06 23:50 | -42.20590 | 174.09925 | 32509 ft | 443 kts | 221° |
| 2026-05-06 23:51 | -42.23129 | 174.07581 | 32914 ft | 441 kts | 221° |
| 2026-05-06 23:51 | -42.25653 | 174.05249 | 33383 ft | 438 kts | 221° |
| 2026-05-06 23:51 | -42.28161 | 174.02929 | 33839 ft | 436 kts | 221° |
| 2026-05-06 23:51 | -42.30653 | 174.00623 | 34223 ft | 434 kts | 221° |
| 2026-05-06 23:52 | -42.33138 | 173.98319 | 34541 ft | 433 kts | 221° |
| 2026-05-06 23:52 | -42.35621 | 173.96015 | 34837 ft | 432 kts | 221° |
| 2026-05-06 23:52 | -42.38093 | 173.93719 | 35154 ft | 431 kts | 221° |
| 2026-05-06 23:52 | -42.40561 | 173.91426 | 35469 ft | 429 kts | 221° |
| 2026-05-06 23:53 | -42.42981 | 173.89165 | 35808 ft | 427 kts | 222° |
| 2026-05-06 23:53 | -42.45431 | 173.86881 | 36028 ft | 429 kts | 222° |
| 2026-05-06 23:53 | -42.50391 | 173.82256 | 35989 ft | 434 kts | 222° |
| 2026-05-06 23:54 | -42.55330 | 173.77653 | 35972 ft | 427 kts | 222° |
| 2026-05-06 23:54 | -42.60204 | 173.73095 | 35987 ft | 425 kts | 222° |
| 2026-05-06 23:55 | -42.65076 | 173.68523 | 35985 ft | 426 kts | 222° |
| 2026-05-06 23:55 | -42.69952 | 173.63938 | 35981 ft | 426 kts | 222° |
| 2026-05-06 23:56 | -42.74832 | 173.59344 | 35974 ft | 427 kts | 222° |
| 2026-05-06 23:56 | -42.79714 | 173.54738 | 35971 ft | 427 kts | 222° |
| 2026-05-06 23:57 | -42.84602 | 173.50118 | 35993 ft | 428 kts | 223° |
| 2026-05-06 23:57 | -42.89501 | 173.45477 | 35970 ft | 429 kts | 223° |
| 2026-05-06 23:58 | -42.94394 | 173.40834 | 35953 ft | 429 kts | 223° |
| 2026-05-06 23:58 | -42.99290 | 173.36180 | 35952 ft | 429 kts | 223° |
| 2026-05-06 23:59 | -43.04183 | 173.31518 | 35975 ft | 429 kts | 223° |
| 2026-05-06 23:59 | -43.08253 | 173.27634 | 35953 ft | 429 kts | 223° |
| 2026-05-07 00:00 | -43.11296 | 173.24221 | 35943 ft | 418 kts | 234° |
| 2026-05-07 00:00 | -43.13134 | 173.21212 | 35952 ft | 409 kts | 241° |
| 2026-05-07 00:00 | -43.15919 | 173.16000 | 35941 ft | 408 kts | 242° |
| 2026-05-07 00:01 | -43.19267 | 173.09711 | 35932 ft | 408 kts | 241° |
| 2026-05-07 00:01 | -43.22634 | 173.03436 | 35948 ft | 409 kts | 241° |
| 2026-05-07 00:02 | -43.26017 | 172.97151 | 35925 ft | 410 kts | 241° |
| 2026-05-07 00:02 | -43.29406 | 172.90850 | 35934 ft | 411 kts | 241° |
| 2026-05-07 00:03 | -43.32795 | 172.84534 | 35906 ft | 411 kts | 241° |
| 2026-05-07 00:03 | -43.36186 | 172.78201 | 35897 ft | 411 kts | 242° |
| 2026-05-07 00:04 | -43.39572 | 172.71863 | 35894 ft | 412 kts | 242° |
| 2026-05-07 00:04 | -43.42963 | 172.65502 | 35893 ft | 412 kts | 242° |
| 2026-05-07 00:05 | -43.46351 | 172.59133 | 35886 ft | 413 kts | 242° |
| 2026-05-07 00:05 | -43.49740 | 172.52752 | 35884 ft | 412 kts | 242° |
| 2026-05-07 00:06 | -43.52776 | 172.46147 | 35902 ft | 406 kts | 248° |
| 2026-05-07 00:06 | -43.55547 | 172.39378 | 35862 ft | 406 kts | 248° |
| 2026-05-07 00:07 | -43.58344 | 172.32607 | 35908 ft | 408 kts | 248° |
| 2026-05-07 00:07 | -43.61184 | 172.25802 | 35892 ft | 411 kts | 248° |
| 2026-05-07 00:08 | -43.64029 | 172.18993 | 35877 ft | 413 kts | 248° |
| 2026-05-07 00:08 | -43.66924 | 172.12049 | 35873 ft | 416 kts | 248° |
| 2026-05-07 00:09 | -43.69797 | 172.05156 | 35854 ft | 417 kts | 248° |
| 2026-05-07 00:09 | -43.72694 | 171.98188 | 35848 ft | 419 kts | 246° |
| 2026-05-07 00:10 | -43.75599 | 171.91184 | 35857 ft | 421 kts | 247° |
| 2026-05-07 00:10 | -43.78512 | 171.84143 | 35845 ft | 422 kts | 247° |
| 2026-05-07 00:11 | -43.81430 | 171.77075 | 35824 ft | 423 kts | 247° |
| 2026-05-07 00:11 | -43.84357 | 171.69991 | 35824 ft | 424 kts | 246° |
| 2026-05-07 00:12 | -43.87375 | 171.62962 | 35794 ft | 425 kts | 246° |
| 2026-05-07 00:12 | -43.90405 | 171.55942 | 35809 ft | 424 kts | 246° |
| 2026-05-07 00:13 | -43.93418 | 171.48903 | 35809 ft | 425 kts | 246° |
| 2026-05-07 00:13 | -43.96431 | 171.41838 | 35806 ft | 425 kts | 246° |
| 2026-05-07 00:14 | -43.99430 | 171.34759 | 35800 ft | 425 kts | 246° |
| 2026-05-07 00:14 | -44.02419 | 171.27662 | 35816 ft | 425 kts | 246° |
| 2026-05-07 00:15 | -44.05403 | 171.20560 | 35803 ft | 426 kts | 246° |
| 2026-05-07 00:15 | -44.08388 | 171.13443 | 35811 ft | 426 kts | 247° |
| 2026-05-07 00:16 | -44.11375 | 171.06303 | 35806 ft | 427 kts | 247° |
| 2026-05-07 00:16 | -44.14357 | 170.99159 | 35802 ft | 427 kts | 247° |
| 2026-05-07 00:17 | -44.17315 | 170.92054 | 35808 ft | 427 kts | 247° |
| 2026-05-07 00:17 | -44.20291 | 170.84886 | 35802 ft | 428 kts | 246° |
| 2026-05-07 00:18 | -44.23265 | 170.77709 | 35790 ft | 427 kts | 247° |
| 2026-05-07 00:18 | -44.26213 | 170.70586 | 35503 ft | 419 kts | 247° |
| 2026-05-07 00:19 | -44.27654 | 170.67105 | 35223 ft | 412 kts | 248° |
| 2026-05-07 00:19 | -44.29079 | 170.63653 | 34827 ft | 409 kts | 248° |
| 2026-05-07 00:19 | -44.30487 | 170.60236 | 34491 ft | 405 kts | 248° |
| 2026-05-07 00:19 | -44.31884 | 170.56837 | 34129 ft | 402 kts | 248° |
| 2026-05-07 00:20 | -44.33274 | 170.53452 | 33800 ft | 400 kts | 249° |
| 2026-05-07 00:20 | -44.34653 | 170.50083 | 33329 ft | 399 kts | 248° |
| 2026-05-07 00:20 | -44.36025 | 170.46730 | 32956 ft | 397 kts | 248° |
| 2026-05-07 00:20 | -44.37391 | 170.43390 | 32590 ft | 395 kts | 248° |
| 2026-05-07 00:21 | -44.38749 | 170.40070 | 32217 ft | 392 kts | 248° |
| 2026-05-07 00:21 | -44.40096 | 170.36768 | 31879 ft | 390 kts | 248° |
| 2026-05-07 00:21 | -44.41436 | 170.33481 | 31517 ft | 389 kts | 248° |
| 2026-05-07 00:21 | -44.42772 | 170.30199 | 31187 ft | 387 kts | 248° |
| 2026-05-07 00:22 | -44.44103 | 170.26926 | 30828 ft | 385 kts | 248° |
| 2026-05-07 00:22 | -44.45421 | 170.23683 | 30489 ft | 384 kts | 248° |
| 2026-05-07 00:22 | -44.46739 | 170.20435 | 30150 ft | 382 kts | 248° |
| 2026-05-07 00:22 | -44.48048 | 170.17207 | 29793 ft | 381 kts | 248° |
| 2026-05-07 00:23 | -44.49350 | 170.13992 | 29430 ft | 378 kts | 248° |
| 2026-05-07 00:23 | -44.50644 | 170.10794 | 29061 ft | 375 kts | 249° |
| 2026-05-07 00:23 | -44.51926 | 170.07622 | 28678 ft | 374 kts | 249° |
| 2026-05-07 00:23 | -44.53201 | 170.04463 | 28348 ft | 370 kts | 249° |
| 2026-05-07 00:24 | -44.54465 | 170.01327 | 27963 ft | 369 kts | 249° |
| 2026-05-07 00:24 | -44.55719 | 169.98210 | 27652 ft | 366 kts | 249° |
| 2026-05-07 00:24 | -44.56961 | 169.95111 | 27289 ft | 365 kts | 249° |
| 2026-05-07 00:24 | -44.58207 | 169.92014 | 26952 ft | 364 kts | 249° |
| 2026-05-07 00:25 | -44.59448 | 169.88927 | 26605 ft | 362 kts | 249° |
| 2026-05-07 00:25 | -44.60681 | 169.85855 | 26270 ft | 360 kts | 249° |
| 2026-05-07 00:25 | -44.61906 | 169.82795 | 25937 ft | 359 kts | 249° |
| 2026-05-07 00:25 | -44.63130 | 169.79740 | 25577 ft | 358 kts | 249° |
| 2026-05-07 00:26 | -44.64343 | 169.76704 | 25254 ft | 356 kts | 249° |
| 2026-05-07 00:26 | -44.65552 | 169.73674 | 24954 ft | 354 kts | 250° |
| 2026-05-07 00:26 | -44.66750 | 169.70664 | 24621 ft | 353 kts | 250° |
| 2026-05-07 00:26 | -44.67543 | 169.68672 | 24393 ft | 353 kts | 250° |
| 2026-05-07 00:28 | -44.73625 | 169.53345 | 22592 ft | 342 kts | 249° |
| 2026-05-07 00:28 | -44.74781 | 169.50428 | 22238 ft | 340 kts | 249° |
| 2026-05-07 00:28 | -44.75927 | 169.47530 | 21904 ft | 337 kts | 249° |
| 2026-05-07 00:28 | -44.77061 | 169.44657 | 21590 ft | 335 kts | 250° |
| 2026-05-07 00:29 | -44.78185 | 169.41805 | 21261 ft | 333 kts | 250° |
| 2026-05-07 00:29 | -44.79303 | 169.38961 | 20965 ft | 332 kts | 250° |
| 2026-05-07 00:30 | -44.82406 | 169.30316 | 20031 ft | 322 kts | 260° |
| 2026-05-07 00:30 | -44.83082 | 169.27286 | 19685 ft | 319 kts | 262° |
| 2026-05-07 00:30 | -44.83695 | 169.24335 | 19356 ft | 318 kts | 262° |
| 2026-05-07 00:30 | -44.84324 | 169.21353 | 19047 ft | 317 kts | 262° |
| 2026-05-07 00:31 | -44.84539 | 169.20346 | 18935 ft | 317 kts | 262° |
| 2026-05-07 00:31 | -44.86364 | 169.11998 | 18002 ft | 318 kts | 261° |
| 2026-05-07 00:31 | -44.87027 | 169.09022 | 17623 ft | 318 kts | 261° |
| 2026-05-07 00:32 | -44.87690 | 169.06051 | 17295 ft | 317 kts | 261° |
| 2026-05-07 00:32 | -44.88350 | 169.03090 | 16931 ft | 317 kts | 261° |
| 2026-05-07 00:32 | -44.89013 | 169.00124 | 16619 ft | 316 kts | 261° |
| 2026-05-07 00:32 | -44.89673 | 168.97163 | 16265 ft | 315 kts | 261° |
| 2026-05-07 00:33 | -44.90323 | 168.94226 | 15928 ft | 313 kts | 261° |
| 2026-05-07 00:33 | -44.90931 | 168.91295 | 15636 ft | 307 kts | 268° |
| 2026-05-07 00:33 | -44.90987 | 168.88367 | 15316 ft | 295 kts | 281° |
| 2026-05-07 00:33 | -44.90854 | 168.85480 | 14960 ft | 295 kts | 281° |
| 2026-05-07 00:34 | -44.90736 | 168.82613 | 14653 ft | 292 kts | 281° |
| 2026-05-07 00:34 | -44.90630 | 168.79754 | 14349 ft | 291 kts | 280° |
| 2026-05-07 00:34 | -44.90522 | 168.76910 | 14024 ft | 288 kts | 281° |
| 2026-05-07 00:34 | -44.90423 | 168.74177 | 13827 ft | 275 kts | 281° |
| 2026-05-07 00:35 | -44.90333 | 168.71485 | 13328 ft | 275 kts | 281° |
| 2026-05-07 00:35 | -44.90222 | 168.68820 | 12986 ft | 268 kts | 282° |
| 2026-05-07 00:35 | -44.90183 | 168.66215 | 12667 ft | 269 kts | 271° |
| 2026-05-07 00:35 | -44.90684 | 168.63727 | 12548 ft | 265 kts | 257° |
| 2026-05-07 00:36 | -44.91492 | 168.61349 | 12269 ft | 266 kts | 253° |
| 2026-05-07 00:36 | -44.92336 | 168.59011 | 11951 ft | 268 kts | 250° |
| 2026-05-07 00:36 | -44.93184 | 168.56693 | 11779 ft | 264 kts | 253° |
| 2026-05-07 00:36 | -44.94020 | 168.54391 | 11481 ft | 270 kts | 252° |
| 2026-05-07 00:37 | -44.94856 | 168.52114 | 11480 ft | 252 kts | 252° |
| 2026-05-07 00:37 | -44.95124 | 168.51371 | 11433 ft | 248 kts | 253° |
| 2026-05-07 00:37 | -44.96953 | 168.46457 | 10729 ft | 226 kts | 251° |
| 2026-05-07 00:38 | -44.97632 | 168.44423 | 10333 ft | 234 kts | 252° |
| 2026-05-07 00:38 | -44.98321 | 168.42361 | 10114 ft | 230 kts | 251° |
| 2026-05-07 00:38 | -44.99001 | 168.40401 | 10014 ft | 220 kts | 251° |
| 2026-05-07 00:38 | -44.99675 | 168.38458 | 9878 ft | 218 kts | 252° |
| 2026-05-07 00:39 | -45.00339 | 168.36557 | 9760 ft | 215 kts | 251° |
| 2026-05-07 00:39 | -45.01029 | 168.34686 | 9616 ft | 215 kts | 244° |
| 2026-05-07 00:39 | -45.02147 | 168.33253 | 9447 ft | 229 kts | 210° |
| 2026-05-07 00:39 | -45.03748 | 168.32925 | 9317 ft | 241 kts | 169° |
| 2026-05-07 00:40 | -45.05148 | 168.34133 | 9205 ft | 241 kts | 131° |
| 2026-05-07 00:40 | -45.06455 | 168.35697 | 9093 ft | 252 kts | 147° |
| 2026-05-07 00:40 | -45.07960 | 168.36928 | 8791 ft | 253 kts | 149° |
| 2026-05-07 00:40 | -45.09344 | 168.38357 | 8731 ft | 238 kts | 140° |
| 2026-05-07 00:41 | -45.10644 | 168.39798 | 8724 ft | 239 kts | 140° |
| 2026-05-07 00:41 | -45.11648 | 168.41658 | 8440 ft | 237 kts | 104° |
| 2026-05-07 00:41 | -45.11760 | 168.43897 | 8158 ft | 223 kts | 74° |
| 2026-05-07 00:41 | -45.11393 | 168.45973 | 7897 ft | 218 kts | 68° |
| 2026-05-07 00:42 | -45.10965 | 168.48036 | 7610 ft | 217 kts | 68° |
| 2026-05-07 00:42 | -45.10524 | 168.50159 | 6890 ft | 231 kts | 69° |
| 2026-05-07 00:42 | -45.10066 | 168.52392 | 6177 ft | 240 kts | 70° |
| 2026-05-07 00:42 | -45.09599 | 168.54661 | 5430 ft | 244 kts | 69° |
| 2026-05-07 00:43 | -45.08829 | 168.56784 | 4686 ft | 242 kts | 55° |
| 2026-05-07 00:43 | -45.07921 | 168.58758 | 3914 ft | 235 kts | 57° |
| 2026-05-07 00:43 | -45.07014 | 168.60718 | 4267 ft | 229 kts | 55° |
| 2026-05-07 00:43 | -45.06194 | 168.62414 | 5532 ft | 208 kts | 53° |
| 2026-05-07 00:44 | -45.05351 | 168.64179 | 6005 ft | 224 kts | 53° |
| 2026-05-07 00:44 | -45.04455 | 168.66060 | 6501 ft | 235 kts | 51° |
| 2026-05-07 00:44 | -45.03526 | 168.67940 | 7523 ft | 225 kts | 50° |
| 2026-05-07 00:44 | -45.02688 | 168.69678 | 8553 ft | 218 kts | 50° |
| 2026-05-07 00:45 | -45.01854 | 168.71514 | 9007 ft | 218 kts | 50° |
| 2026-05-07 00:45 | -45.01110 | 168.73253 | 9158 ft | 202 kts | 49° |
| 2026-05-07 00:45 | -45.00348 | 168.74998 | 8460 ft | 216 kts | 50° |
| 2026-05-07 00:45 | -44.99489 | 168.76885 | 7608 ft | 230 kts | 52° |
| 2026-05-07 00:46 | -44.98729 | 168.78695 | 7726 ft | 203 kts | 54° |
| 2026-05-07 00:46 | -44.98075 | 168.80435 | 7749 ft | 202 kts | 55° |
| 2026-05-07 00:46 | -44.97414 | 168.82186 | 7816 ft | 198 kts | 55° |
| 2026-05-07 00:46 | -44.96899 | 168.84016 | 8302 ft | 210 kts | 77° |
| 2026-05-07 00:47 | -44.97096 | 168.86122 | 8818 ft | 225 kts | 105° |
| 2026-05-07 00:47 | -44.97741 | 168.88174 | 9342 ft | 231 kts | 111° |
| 2026-05-07 00:47 | -44.98470 | 168.90208 | 9807 ft | 235 kts | 112° |
| 2026-05-07 00:47 | -44.99217 | 168.92367 | 9818 ft | 256 kts | 106° |
| 2026-05-07 00:48 | -44.99922 | 168.94688 | 9901 ft | 266 kts | 114° |
| 2026-05-07 00:48 | -45.00878 | 168.97016 | 9951 ft | 273 kts | 114° |
| 2026-05-07 00:48 | -45.01415 | 168.99637 | 9803 ft | 276 kts | 80° |
| 2026-05-07 00:48 | -45.00862 | 169.02159 | 9771 ft | 265 kts | 49° |
| 2026-05-07 00:49 | -44.99723 | 169.04177 | 9752 ft | 263 kts | 45° |
| 2026-05-07 00:49 | -44.98986 | 169.06574 | 9727 ft | 273 kts | 74° |
| 2026-05-07 00:49 | -44.98927 | 169.09289 | 9881 ft | 280 kts | 90° |
| 2026-05-07 00:49 | -44.99291 | 169.12027 | 10323 ft | 290 kts | 102° |
| 2026-05-07 00:50 | -45.00246 | 169.14569 | 10312 ft | 295 kts | 128° |
| 2026-05-07 00:50 | -45.01588 | 169.16737 | 10602 ft | 301 kts | 126° |
| 2026-05-07 00:50 | -45.02589 | 169.19354 | 10797 ft | 305 kts | 100° |
| 2026-05-07 00:50 | -45.03039 | 169.22217 | 10931 ft | 294 kts | 94° |
| 2026-05-07 00:51 | -45.03383 | 169.25100 | 10959 ft | 298 kts | 84° |
| 2026-05-07 00:51 | -45.03347 | 169.27982 | 10960 ft | 295 kts | 76° |
| 2026-05-07 00:51 | -45.03194 | 169.30859 | 10919 ft | 291 kts | 75° |
| 2026-05-07 00:51 | -45.03034 | 169.33719 | 10947 ft | 290 kts | 75° |
| 2026-05-07 00:52 | -45.02869 | 169.36585 | 10980 ft | 292 kts | 75° |
| 2026-05-07 00:52 | -45.02701 | 169.39408 | 10932 ft | 294 kts | 75° |
| 2026-05-07 00:52 | -45.02523 | 169.42344 | 10946 ft | 305 kts | 75° |
| 2026-05-07 00:52 | -45.02325 | 169.45368 | 10952 ft | 313 kts | 75° |
| 2026-05-07 00:53 | -45.02123 | 169.48404 | 10934 ft | 314 kts | 75° |
| 2026-05-07 00:53 | -45.01916 | 169.51480 | 10920 ft | 314 kts | 75° |
| 2026-05-07 00:53 | -45.01675 | 169.54567 | 10922 ft | 309 kts | 74° |
| 2026-05-07 00:53 | -45.01448 | 169.57546 | 10937 ft | 308 kts | 70° |
| 2026-05-07 00:54 | -45.00724 | 169.60243 | 10947 ft | 286 kts | 45° |
| 2026-05-07 00:54 | -44.99338 | 169.62082 | 10936 ft | 266 kts | 19° |
| 2026-05-07 00:54 | -44.97628 | 169.62735 | 10942 ft | 252 kts | 356° |
| 2026-05-07 00:54 | -44.95874 | 169.62650 | 10949 ft | 250 kts | 351° |
| 2026-05-07 00:55 | -44.94134 | 169.62433 | 10938 ft | 248 kts | 350° |
| 2026-05-07 00:55 | -44.92441 | 169.62168 | 10946 ft | 249 kts | 349° |
| 2026-05-07 00:55 | -44.90683 | 169.62067 | 10917 ft | 252 kts | 351° |
| 2026-05-07 00:55 | -44.88945 | 169.61763 | 10923 ft | 251 kts | 348° |
| 2026-05-07 00:56 | -44.87229 | 169.61447 | 10903 ft | 248 kts | 348° |
| 2026-05-07 00:56 | -44.85529 | 169.61149 | 10912 ft | 244 kts | 349° |
| 2026-05-07 00:56 | -44.83856 | 169.60864 | 10928 ft | 242 kts | 349° |
| 2026-05-07 00:56 | -44.82192 | 169.60588 | 10942 ft | 244 kts | 349° |
| 2026-05-07 00:57 | -44.80565 | 169.60018 | 10909 ft | 241 kts | 327° |
| 2026-05-07 00:57 | -44.79469 | 169.58241 | 10938 ft | 248 kts | 303° |
| 2026-05-07 00:57 | -44.78811 | 169.55996 | 10929 ft | 248 kts | 291° |
| 2026-05-07 00:57 | -44.78577 | 169.53520 | 10921 ft | 268 kts | 276° |
| 2026-05-07 00:58 | -44.78877 | 169.50894 | 10928 ft | 271 kts | 268° |
| 2026-05-07 00:58 | -44.79291 | 169.48341 | 11171 ft | 265 kts | 267° |
| 2026-05-07 00:58 | -44.79707 | 169.45829 | 11827 ft | 265 kts | 267° |
| 2026-05-07 00:58 | -44.80120 | 169.43272 | 12534 ft | 270 kts | 267° |
| 2026-05-07 00:59 | -44.80942 | 169.38082 | 12917 ft | 276 kts | 267° |
| 2026-05-07 00:59 | -44.81354 | 169.35452 | 12913 ft | 273 kts | 267° |
| 2026-05-07 00:59 | -44.81759 | 169.32864 | 12776 ft | 269 kts | 267° |
| 2026-05-07 01:00 | -44.82156 | 169.30297 | 12452 ft | 268 kts | 266° |
| 2026-05-07 01:00 | -44.82549 | 169.27713 | 12034 ft | 272 kts | 265° |
| 2026-05-07 01:00 | -44.82952 | 169.25093 | 11678 ft | 273 kts | 265° |
| 2026-05-07 01:00 | -44.83163 | 169.22498 | 11480 ft | 259 kts | 283° |
| 2026-05-07 01:01 | -44.82745 | 169.20132 | 11449 ft | 242 kts | 297° |
| 2026-05-07 01:02 | -44.78448 | 169.15078 | 11160 ft | 211 kts | 347° |
| 2026-05-07 01:02 | -44.76972 | 169.14992 | 10840 ft | 218 kts | 1° |
| 2026-05-07 01:02 | -44.75474 | 169.15490 | 10657 ft | 224 kts | 15° |
| 2026-05-07 01:02 | -44.74094 | 169.16566 | 10509 ft | 232 kts | 29° |
| 2026-05-07 01:03 | -44.72893 | 169.18116 | 10282 ft | 238 kts | 42° |
| 2026-05-07 01:03 | -44.71957 | 169.20076 | 10052 ft | 248 kts | 59° |
| 2026-05-07 01:03 | -44.71470 | 169.22447 | 10011 ft | 255 kts | 69° |
| 2026-05-07 01:03 | -44.71067 | 169.24897 | 9982 ft | 259 kts | 69° |
| 2026-05-07 01:04 | -44.70758 | 169.27414 | 9918 ft | 268 kts | 85° |
| 2026-05-07 01:04 | -44.71188 | 169.29980 | 9939 ft | 273 kts | 109° |
| 2026-05-07 01:04 | -44.72188 | 169.32260 | 9932 ft | 277 kts | 128° |
| 2026-05-07 01:04 | -44.73652 | 169.34076 | 9943 ft | 283 kts | 148° |
| 2026-05-07 01:05 | -44.75491 | 169.35166 | 9933 ft | 299 kts | 172° |
| 2026-05-07 01:05 | -44.77568 | 169.35310 | 9930 ft | 298 kts | 197° |
| 2026-05-07 01:05 | -44.79443 | 169.34402 | 9924 ft | 275 kts | 223° |
| 2026-05-07 01:05 | -44.80839 | 169.32736 | 9936 ft | 254 kts | 241° |
| 2026-05-07 01:06 | -44.81833 | 169.30751 | 9937 ft | 242 kts | 253° |
| 2026-05-07 01:06 | -44.82397 | 169.28568 | 9952 ft | 234 kts | 263° |
| 2026-05-07 01:06 | -44.82779 | 169.26321 | 9941 ft | 238 kts | 265° |
| 2026-05-07 01:06 | -44.83142 | 169.24034 | 9909 ft | 245 kts | 265° |
| 2026-05-07 01:07 | -44.83533 | 169.21567 | 9681 ft | 265 kts | 264° |
| 2026-05-07 01:07 | -44.83950 | 169.19046 | 9617 ft | 259 kts | 263° |
| 2026-05-07 01:07 | -44.84358 | 169.16618 | 9569 ft | 251 kts | 264° |
| 2026-05-07 01:07 | -44.84820 | 169.14245 | 9288 ft | 250 kts | 256° |
| 2026-05-07 01:08 | -44.85579 | 169.12049 | 9036 ft | 249 kts | 245° |
| 2026-05-07 01:08 | -44.86638 | 169.10134 | 8770 ft | 248 kts | 233° |
| 2026-05-07 01:08 | -44.87937 | 169.08552 | 8508 ft | 247 kts | 221° |
| 2026-05-07 01:08 | -44.89452 | 169.07377 | 8195 ft | 249 kts | 207° |
| 2026-05-07 01:09 | -44.91079 | 169.06681 | 7900 ft | 248 kts | 195° |
| 2026-05-07 01:09 | -44.92809 | 169.06399 | 7569 ft | 247 kts | 185° |
| 2026-05-07 01:09 | -44.94502 | 169.06502 | 7247 ft | 239 kts | 179° |
| 2026-05-07 01:09 | -44.96141 | 169.06670 | 6939 ft | 232 kts | 179° |
| 2026-05-07 01:10 | -44.97708 | 169.06826 | 6672 ft | 225 kts | 178° |
| 2026-05-07 01:10 | -44.99256 | 169.06829 | 6353 ft | 220 kts | 191° |
| 2026-05-07 01:10 | -45.00662 | 169.06182 | 6097 ft | 212 kts | 212° |
| 2026-05-07 01:10 | -45.01870 | 169.05022 | 5728 ft | 206 kts | 226° |
| 2026-05-07 01:11 | -45.02763 | 169.03526 | 5474 ft | 196 kts | 243° |
| 2026-05-07 01:11 | -45.03359 | 169.01823 | 5239 ft | 194 kts | 257° |
| 2026-05-07 01:11 | -45.03540 | 168.99960 | 4888 ft | 189 kts | 281° |
| 2026-05-07 01:11 | -45.03688 | 168.98169 | 4653 ft | 189 kts | 243° |
| 2026-05-07 01:12 | -45.04059 | 168.96446 | 4375 ft | 187 kts | 276° |
| 2026-05-07 01:12 | -45.03573 | 168.94772 | 3856 ft | 189 kts | 315° |
| 2026-05-07 01:12 | -45.02591 | 168.93733 | 3722 ft | 167 kts | 317° |
| 2026-05-07 01:12 | -45.01964 | 168.92459 | 3636 ft | 157 kts | 301° |
| 2026-05-07 01:13 | -45.01366 | 168.91168 | 3401 ft | 153 kts | 302° |
| 2026-05-07 01:13 | -45.00797 | 168.89940 | 3241 ft | 148 kts | 302° |
| 2026-05-07 01:13 | -45.00206 | 168.88717 | 3059 ft | 151 kts | 299° |
| 2026-05-07 01:13 | -44.99999 | 168.87325 | 2899 ft | 144 kts | 261° |
| 2026-05-07 01:14 | -45.00139 | 168.85912 | 2730 ft | 147 kts | 265° |
| 2026-05-07 01:14 | -45.00199 | 168.84457 | 2533 ft | 147 kts | 268° |
| 2026-05-07 01:14 | -45.00299 | 168.83000 | 2166 ft | 151 kts | 259° |
| 2026-05-07 01:14 | -45.00598 | 168.81602 | 1744 ft | 147 kts | 257° |
| 2026-05-07 01:15 | -45.00824 | 168.80224 | 1515 ft | 140 kts | 256° |
| 2026-05-07 01:15 | -45.01122 | 168.78901 | 1546 ft | 143 kts | 254° |
| 2026-05-07 01:15 | -45.01412 | 168.77294 | 1490 ft | 147 kts | 258° |
| 2026-05-07 01:15 | -45.01640 | 168.75855 | 1246 ft | 149 kts | 257° |
| 2026-05-07 01:16 | -45.01846 | 168.74575 | 1172 ft | 108 kts | 260° |
| 2026-05-07 01:16 | -45.01930 | 168.74082 | 1175 ft | 27 kts | 240° |
| 2026-05-07 01:16 | -45.02003 | 168.74015 | 1174 ft | 0 kts | 203° |
| 2026-05-07 01:17 | -45.02003 | 168.74014 | 1175 ft | 1 kts | 203° |
| 2026-05-07 01:17 | -45.02016 | 168.74007 | 1171 ft | 0 kts | 203° |
| 2026-05-07 01:17 | -45.02040 | 168.73969 | 1173 ft | 9 kts | 252° |
| 2026-05-07 01:17 | -45.02052 | 168.73883 | 1170 ft | 8 kts | 233° |
| 2026-05-07 01:18 | -45.02070 | 168.73885 | 1173 ft | 0 kts | 138° |